sensor_id;sensor_type;location;lat;lon;timestamp;temperature;humidity
18339;DHT22;9295;44.484;11.240;2022-10-16T00:01:39;16.40;99.90
18339;DHT22;9295;44.484;11.240;2022-10-16T00:04:08;16.40;99.90
18339;DHT22;9295;44.484;11.240;2022-10-16T00:06:37;16.40;99.90
18339;DHT22;9295;44.484;11.240;2022-10-16T00:09:06;16.40;99.90
18339;DHT22;9295;44.484;11.240;2022-10-16T00:11:37;16.40;99.90
18339;DHT22;9295;44.484;11.240;2022-10-16T00:14:08;16.40;99.90
18339;DHT22;9295;44.484;11.240;2022-10-16T00:16:39;16.40;99.90
18339;DHT22;9295;44.484;11.240;2022-10-16T00:19:09;16.40;99.90
18339;DHT22;9295;44.484;11.240;2022-10-16T00:21:38;16.30;99.90
18339;DHT22;9295;44.484;11.240;2022-10-16T00:24:25;16.30;99.90
18339;DHT22;9295;44.484;11.240;2022-10-16T00:26:54;16.30;99.90
18339;DHT22;9295;44.484;11.240;2022-10-16T00:29:22;16.40;99.90
18339;DHT22;9295;44.484;11.240;2022-10-16T00:31:52;16.40;99.90
18339;DHT22;9295;44.484;11.240;2022-10-16T00:34:20;16.40;99.90
18339;DHT22;9295;44.484;11.240;2022-10-16T00:36:48;16.40;99.90
18339;DHT22;9295;44.484;11.240;2022-10-16T00:39:17;16.40;99.90
18339;DHT22;9295;44.484;11.240;2022-10-16T00:41:46;16.40;99.90
18339;DHT22;9295;44.484;11.240;2022-10-16T00:44:43;16.40;99.90
18339;DHT22;9295;44.484;11.240;2022-10-16T00:47:19;16.40;99.90
18339;DHT22;9295;44.484;11.240;2022-10-16T00:49:50;16.50;99.90
18339;DHT22;9295;44.484;11.240;2022-10-16T00:52:19;16.50;99.90
18339;DHT22;9295;44.484;11.240;2022-10-16T00:54:49;16.50;99.90
18339;DHT22;9295;44.484;11.240;2022-10-16T00:57:18;16.40;99.90
18339;DHT22;9295;44.484;11.240;2022-10-16T00:59:47;16.40;99.90
18339;DHT22;9295;44.484;11.240;2022-10-16T01:02:17;16.50;99.90
18339;DHT22;9295;44.484;11.240;2022-10-16T01:04:48;16.50;99.90
18339;DHT22;9295;44.484;11.240;2022-10-16T01:07:30;16.50;99.90
18339;DHT22;9295;44.484;11.240;2022-10-16T01:10:09;16.50;99.90
18339;DHT22;9295;44.484;11.240;2022-10-16T01:12:41;16.50;99.90
18339;DHT22;9295;44.484;11.240;2022-10-16T01:15:18;16.50;99.90
18339;DHT22;9295;44.484;11.240;2022-10-16T01:17:55;16.50;99.90
18339;DHT22;9295;44.484;11.240;2022-10-16T01:20:29;16.40;99.90
18339;DHT22;9295;44.484;11.240;2022-10-16T01:23:15;16.40;99.90
18339;DHT22;9295;44.484;11.240;2022-10-16T01:26:02;16.50;99.90
18339;DHT22;9295;44.484;11.240;2022-10-16T01:28:39;16.50;99.90
18339;DHT22;9295;44.484;11.240;2022-10-16T01:31:11;16.50;99.90
18339;DHT22;9295;44.484;11.240;2022-10-16T01:33:45;16.50;99.90
18339;DHT22;9295;44.484;11.240;2022-10-16T01:36:18;16.50;99.90
18339;DHT22;9295;44.484;11.240;2022-10-16T01:38:51;16.60;99.90
18339;DHT22;9295;44.484;11.240;2022-10-16T01:41:24;16.60;99.90
18339;DHT22;9295;44.484;11.240;2022-10-16T01:44:01;16.60;99.90
18339;DHT22;9295;44.484;11.240;2022-10-16T01:46:31;16.60;99.90
18339;DHT22;9295;44.484;11.240;2022-10-16T01:49:02;16.60;99.90
18339;DHT22;9295;44.484;11.240;2022-10-16T01:51:32;16.60;99.90
18339;DHT22;9295;44.484;11.240;2022-10-16T01:54:02;16.60;99.90
18339;DHT22;9295;44.484;11.240;2022-10-16T01:56:33;16.60;99.90
18339;DHT22;9295;44.484;11.240;2022-10-16T01:59:06;16.60;99.90
18339;DHT22;9295;44.484;11.240;2022-10-16T02:01:40;16.60;99.90
18339;DHT22;9295;44.484;11.240;2022-10-16T02:04:14;16.60;99.90
18339;DHT22;9295;44.484;11.240;2022-10-16T02:06:45;16.60;99.90
18339;DHT22;9295;44.484;11.240;2022-10-16T02:09:13;16.50;99.90
18339;DHT22;9295;44.484;11.240;2022-10-16T02:11:44;16.60;99.90
18339;DHT22;9295;44.484;11.240;2022-10-16T02:14:14;16.60;99.90
18339;DHT22;9295;44.484;11.240;2022-10-16T02:16:45;16.60;99.90
18339;DHT22;9295;44.484;11.240;2022-10-16T02:19:15;16.50;99.90
18339;DHT22;9295;44.484;11.240;2022-10-16T02:21:50;16.50;99.90
18339;DHT22;9295;44.484;11.240;2022-10-16T02:24:23;16.50;99.90
18339;DHT22;9295;44.484;11.240;2022-10-16T02:27:00;16.50;99.90
18339;DHT22;9295;44.484;11.240;2022-10-16T02:29:32;16.50;99.90
18339;DHT22;9295;44.484;11.240;2022-10-16T02:32:03;16.50;99.90
18339;DHT22;9295;44.484;11.240;2022-10-16T02:34:33;16.40;99.90
18339;DHT22;9295;44.484;11.240;2022-10-16T02:37:04;16.40;99.90
18339;DHT22;9295;44.484;11.240;2022-10-16T02:39:33;16.40;99.90
18339;DHT22;9295;44.484;11.240;2022-10-16T02:42:02;16.30;99.90
18339;DHT22;9295;44.484;11.240;2022-10-16T02:44:32;16.20;99.90
18339;DHT22;9295;44.484;11.240;2022-10-16T02:47:00;16.20;99.90
18339;DHT22;9295;44.484;11.240;2022-10-16T02:49:29;16.10;99.90
18339;DHT22;9295;44.484;11.240;2022-10-16T02:51:57;16.10;99.90
18339;DHT22;9295;44.484;11.240;2022-10-16T02:54:26;16.00;99.90
18339;DHT22;9295;44.484;11.240;2022-10-16T02:56:54;16.00;99.90
18339;DHT22;9295;44.484;11.240;2022-10-16T02:59:22;15.90;99.90
18339;DHT22;9295;44.484;11.240;2022-10-16T03:01:52;15.90;99.90
18339;DHT22;9295;44.484;11.240;2022-10-16T03:04:21;15.80;99.90
18339;DHT22;9295;44.484;11.240;2022-10-16T03:06:49;15.80;99.90
18339;DHT22;9295;44.484;11.240;2022-10-16T03:09:17;15.80;99.90
18339;DHT22;9295;44.484;11.240;2022-10-16T03:11:46;15.70;99.90
18339;DHT22;9295;44.484;11.240;2022-10-16T03:14:14;15.70;99.90
18339;DHT22;9295;44.484;11.240;2022-10-16T03:16:43;15.60;99.90
18339;DHT22;9295;44.484;11.240;2022-10-16T03:19:13;15.60;99.90
18339;DHT22;9295;44.484;11.240;2022-10-16T03:21:41;15.60;99.90
18339;DHT22;9295;44.484;11.240;2022-10-16T03:24:09;15.60;99.90
18339;DHT22;9295;44.484;11.240;2022-10-16T03:26:38;15.50;99.90
18339;DHT22;9295;44.484;11.240;2022-10-16T03:29:06;15.50;99.90
18339;DHT22;9295;44.484;11.240;2022-10-16T03:31:35;15.50;99.90
18339;DHT22;9295;44.484;11.240;2022-10-16T03:34:03;15.40;99.90
18339;DHT22;9295;44.484;11.240;2022-10-16T03:36:33;15.40;99.90
18339;DHT22;9295;44.484;11.240;2022-10-16T03:39:01;15.40;99.90
18339;DHT22;9295;44.484;11.240;2022-10-16T03:41:30;15.40;99.90
18339;DHT22;9295;44.484;11.240;2022-10-16T03:43:58;15.30;99.90
18339;DHT22;9295;44.484;11.240;2022-10-16T03:46:27;15.30;99.90
18339;DHT22;9295;44.484;11.240;2022-10-16T03:48:55;15.30;99.90
18339;DHT22;9295;44.484;11.240;2022-10-16T03:51:24;15.30;99.90
18339;DHT22;9295;44.484;11.240;2022-10-16T03:53:53;15.30;99.90
18339;DHT22;9295;44.484;11.240;2022-10-16T03:56:22;15.20;99.90
18339;DHT22;9295;44.484;11.240;2022-10-16T03:58:51;15.20;99.90
18339;DHT22;9295;44.484;11.240;2022-10-16T04:01:19;15.10;99.90
18339;DHT22;9295;44.484;11.240;2022-10-16T04:03:47;15.10;99.90
18339;DHT22;9295;44.484;11.240;2022-10-16T04:06:16;15.00;99.90
18339;DHT22;9295;44.484;11.240;2022-10-16T04:08:44;15.00;99.90
18339;DHT22;9295;44.484;11.240;2022-10-16T04:11:14;15.00;99.90
18339;DHT22;9295;44.484;11.240;2022-10-16T04:13:42;15.00;99.90
18339;DHT22;9295;44.484;11.240;2022-10-16T04:16:11;15.00;99.90
18339;DHT22;9295;44.484;11.240;2022-10-16T04:18:39;15.00;99.90
18339;DHT22;9295;44.484;11.240;2022-10-16T04:21:08;15.00;99.90
18339;DHT22;9295;44.484;11.240;2022-10-16T04:23:37;14.90;99.90
18339;DHT22;9295;44.484;11.240;2022-10-16T04:26:05;14.90;99.90
18339;DHT22;9295;44.484;11.240;2022-10-16T04:28:35;14.90;99.90
18339;DHT22;9295;44.484;11.240;2022-10-16T04:31:04;14.90;99.90
18339;DHT22;9295;44.484;11.240;2022-10-16T04:33:32;14.90;99.90
18339;DHT22;9295;44.484;11.240;2022-10-16T04:36:02;14.90;99.90
18339;DHT22;9295;44.484;11.240;2022-10-16T04:38:31;14.90;99.90
18339;DHT22;9295;44.484;11.240;2022-10-16T04:40:59;14.80;99.90
18339;DHT22;9295;44.484;11.240;2022-10-16T04:43:28;14.80;99.90
18339;DHT22;9295;44.484;11.240;2022-10-16T04:45:57;14.80;99.90
18339;DHT22;9295;44.484;11.240;2022-10-16T04:48:26;14.80;99.90
18339;DHT22;9295;44.484;11.240;2022-10-16T04:50:54;14.80;99.90
18339;DHT22;9295;44.484;11.240;2022-10-16T04:53:23;14.80;99.90
18339;DHT22;9295;44.484;11.240;2022-10-16T04:55:51;14.80;99.90
18339;DHT22;9295;44.484;11.240;2022-10-16T04:58:20;14.80;99.90
18339;DHT22;9295;44.484;11.240;2022-10-16T05:00:48;14.80;99.90
18339;DHT22;9295;44.484;11.240;2022-10-16T05:03:18;14.80;99.90
18339;DHT22;9295;44.484;11.240;2022-10-16T05:05:47;14.80;99.90
18339;DHT22;9295;44.484;11.240;2022-10-16T05:08:16;14.80;99.90
18339;DHT22;9295;44.484;11.240;2022-10-16T05:10:45;14.80;99.90
18339;DHT22;9295;44.484;11.240;2022-10-16T05:13:13;14.80;99.90
18339;DHT22;9295;44.484;11.240;2022-10-16T05:15:41;14.80;99.90
18339;DHT22;9295;44.484;11.240;2022-10-16T05:18:10;14.80;99.90
18339;DHT22;9295;44.484;11.240;2022-10-16T05:20:40;14.70;99.90
18339;DHT22;9295;44.484;11.240;2022-10-16T05:23:08;14.70;99.90
18339;DHT22;9295;44.484;11.240;2022-10-16T05:25:39;14.70;99.90
18339;DHT22;9295;44.484;11.240;2022-10-16T05:28:08;14.70;99.90
18339;DHT22;9295;44.484;11.240;2022-10-16T05:30:37;14.70;99.90
18339;DHT22;9295;44.484;11.240;2022-10-16T05:33:05;14.60;99.90
18339;DHT22;9295;44.484;11.240;2022-10-16T05:35:34;14.60;99.90
18339;DHT22;9295;44.484;11.240;2022-10-16T05:38:04;14.50;99.90
18339;DHT22;9295;44.484;11.240;2022-10-16T05:40:32;14.50;99.90
18339;DHT22;9295;44.484;11.240;2022-10-16T05:43:01;14.50;99.90
18339;DHT22;9295;44.484;11.240;2022-10-16T05:45:29;14.50;99.90
18339;DHT22;9295;44.484;11.240;2022-10-16T05:47:58;14.50;99.90
18339;DHT22;9295;44.484;11.240;2022-10-16T05:50:27;14.50;99.90
18339;DHT22;9295;44.484;11.240;2022-10-16T05:52:56;14.50;99.90
18339;DHT22;9295;44.484;11.240;2022-10-16T05:55:26;14.50;99.90
18339;DHT22;9295;44.484;11.240;2022-10-16T05:57:55;14.60;99.90
18339;DHT22;9295;44.484;11.240;2022-10-16T06:00:23;14.60;99.90
18339;DHT22;9295;44.484;11.240;2022-10-16T06:02:51;14.60;99.90
18339;DHT22;9295;44.484;11.240;2022-10-16T06:05:20;14.60;99.90
18339;DHT22;9295;44.484;11.240;2022-10-16T06:07:48;14.70;99.90
18339;DHT22;9295;44.484;11.240;2022-10-16T06:10:17;14.80;99.90
18339;DHT22;9295;44.484;11.240;2022-10-16T06:12:46;14.80;99.90
18339;DHT22;9295;44.484;11.240;2022-10-16T06:15:15;14.80;99.90
18339;DHT22;9295;44.484;11.240;2022-10-16T06:17:43;14.90;99.90
18339;DHT22;9295;44.484;11.240;2022-10-16T06:20:11;14.90;99.90
18339;DHT22;9295;44.484;11.240;2022-10-16T06:22:40;15.00;99.90
18339;DHT22;9295;44.484;11.240;2022-10-16T06:25:08;15.10;99.90
18339;DHT22;9295;44.484;11.240;2022-10-16T06:27:39;15.20;99.90
18339;DHT22;9295;44.484;11.240;2022-10-16T06:30:10;15.30;99.90
18339;DHT22;9295;44.484;11.240;2022-10-16T06:32:38;15.40;99.90
18339;DHT22;9295;44.484;11.240;2022-10-16T06:35:07;15.50;99.90
18339;DHT22;9295;44.484;11.240;2022-10-16T06:37:36;15.90;99.90
18339;DHT22;9295;44.484;11.240;2022-10-16T06:40:06;16.40;99.90
18339;DHT22;9295;44.484;11.240;2022-10-16T06:42:35;17.10;99.90
18339;DHT22;9295;44.484;11.240;2022-10-16T06:45:04;17.70;99.90
18339;DHT22;9295;44.484;11.240;2022-10-16T06:47:33;18.20;99.90
18339;DHT22;9295;44.484;11.240;2022-10-16T06:50:02;18.60;99.90
18339;DHT22;9295;44.484;11.240;2022-10-16T06:52:33;19.10;99.90
18339;DHT22;9295;44.484;11.240;2022-10-16T06:55:03;19.60;99.90
18339;DHT22;9295;44.484;11.240;2022-10-16T06:57:31;20.10;99.90
18339;DHT22;9295;44.484;11.240;2022-10-16T07:00:00;20.20;99.90
18339;DHT22;9295;44.484;11.240;2022-10-16T07:02:28;20.50;99.90
18339;DHT22;9295;44.484;11.240;2022-10-16T07:04:58;20.80;99.90
18339;DHT22;9295;44.484;11.240;2022-10-16T07:07:26;21.10;99.90
18339;DHT22;9295;44.484;11.240;2022-10-16T07:09:54;21.40;99.90
18339;DHT22;9295;44.484;11.240;2022-10-16T07:12:23;21.70;99.90
18339;DHT22;9295;44.484;11.240;2022-10-16T07:14:51;21.80;99.90
18339;DHT22;9295;44.484;11.240;2022-10-16T07:17:21;22.10;99.90
18339;DHT22;9295;44.484;11.240;2022-10-16T07:19:50;22.40;99.90
18339;DHT22;9295;44.484;11.240;2022-10-16T07:22:21;22.70;99.90
18339;DHT22;9295;44.484;11.240;2022-10-16T07:24:50;22.90;99.90
18339;DHT22;9295;44.484;11.240;2022-10-16T07:27:19;23.20;99.90
18339;DHT22;9295;44.484;11.240;2022-10-16T07:29:49;23.50;99.90
18339;DHT22;9295;44.484;11.240;2022-10-16T07:32:17;23.50;99.90
18339;DHT22;9295;44.484;11.240;2022-10-16T07:34:46;23.80;99.90
18339;DHT22;9295;44.484;11.240;2022-10-16T07:37:14;23.90;99.90
18339;DHT22;9295;44.484;11.240;2022-10-16T07:39:44;24.20;99.90
18339;DHT22;9295;44.484;11.240;2022-10-16T07:42:13;24.50;99.90
18339;DHT22;9295;44.484;11.240;2022-10-16T07:44:41;24.80;99.90
18339;DHT22;9295;44.484;11.240;2022-10-16T07:47:09;25.00;99.90
18339;DHT22;9295;44.484;11.240;2022-10-16T07:49:38;25.30;99.90
18339;DHT22;9295;44.484;11.240;2022-10-16T07:52:06;25.50;99.90
18339;DHT22;9295;44.484;11.240;2022-10-16T07:54:35;25.90;99.90
18339;DHT22;9295;44.484;11.240;2022-10-16T07:57:05;26.10;99.90
18339;DHT22;9295;44.484;11.240;2022-10-16T07:59:33;26.20;99.90
18339;DHT22;9295;44.484;11.240;2022-10-16T08:02:02;26.00;99.90
18339;DHT22;9295;44.484;11.240;2022-10-16T08:04:30;26.10;99.90
18339;DHT22;9295;44.484;11.240;2022-10-16T08:06:58;26.10;99.90
18339;DHT22;9295;44.484;11.240;2022-10-16T08:09:27;26.20;99.90
18339;DHT22;9295;44.484;11.240;2022-10-16T08:11:56;25.90;99.90
18339;DHT22;9295;44.484;11.240;2022-10-16T08:14:29;25.70;99.90
18339;DHT22;9295;44.484;11.240;2022-10-16T08:16:58;25.40;99.90
18339;DHT22;9295;44.484;11.240;2022-10-16T08:19:29;25.10;99.90
18339;DHT22;9295;44.484;11.240;2022-10-16T08:21:58;25.00;99.90
18339;DHT22;9295;44.484;11.240;2022-10-16T08:24:27;24.80;99.90
18339;DHT22;9295;44.484;11.240;2022-10-16T08:26:57;24.60;99.90
18339;DHT22;9295;44.484;11.240;2022-10-16T08:29:26;24.50;99.90
18339;DHT22;9295;44.484;11.240;2022-10-16T08:31:55;24.50;99.90
18339;DHT22;9295;44.484;11.240;2022-10-16T08:34:24;24.40;99.90
18339;DHT22;9295;44.484;11.240;2022-10-16T08:36:53;24.30;99.90
18339;DHT22;9295;44.484;11.240;2022-10-16T08:39:22;24.30;99.90
18339;DHT22;9295;44.484;11.240;2022-10-16T08:42:07;24.10;99.90
18339;DHT22;9295;44.484;11.240;2022-10-16T08:47:48;23.90;99.90
18339;DHT22;9295;44.484;11.240;2022-10-16T08:50:22;23.80;99.90
18339;DHT22;9295;44.484;11.240;2022-10-16T08:52:52;23.80;99.90
18339;DHT22;9295;44.484;11.240;2022-10-16T08:55:30;23.40;99.90
18339;DHT22;9295;44.484;11.240;2022-10-16T08:57:59;23.40;99.90
18339;DHT22;9295;44.484;11.240;2022-10-16T09:00:28;23.40;99.90
18339;DHT22;9295;44.484;11.240;2022-10-16T09:03:06;23.40;99.90
18339;DHT22;9295;44.484;11.240;2022-10-16T09:05:51;23.40;99.90
18339;DHT22;9295;44.484;11.240;2022-10-16T09:08:28;23.50;99.90
18339;DHT22;9295;44.484;11.240;2022-10-16T09:10:59;23.50;99.90
18339;DHT22;9295;44.484;11.240;2022-10-16T09:13:40;23.50;99.90
18339;DHT22;9295;44.484;11.240;2022-10-16T09:16:17;23.60;99.90
18339;DHT22;9295;44.484;11.240;2022-10-16T09:18:54;23.60;99.90
18339;DHT22;9295;44.484;11.240;2022-10-16T09:21:29;23.60;99.90
18339;DHT22;9295;44.484;11.240;2022-10-16T09:24:00;23.60;99.90
18339;DHT22;9295;44.484;11.240;2022-10-16T09:26:33;23.50;99.90
18339;DHT22;9295;44.484;11.240;2022-10-16T09:29:02;23.40;99.90
18339;DHT22;9295;44.484;11.240;2022-10-16T09:31:31;23.30;99.90
18339;DHT22;9295;44.484;11.240;2022-10-16T09:34:02;23.30;99.90
18339;DHT22;9295;44.484;11.240;2022-10-16T09:36:39;23.40;99.90
18339;DHT22;9295;44.484;11.240;2022-10-16T09:39:09;23.40;99.90
18339;DHT22;9295;44.484;11.240;2022-10-16T09:41:40;23.50;99.90
18339;DHT22;9295;44.484;11.240;2022-10-16T09:44:19;23.50;99.90
18339;DHT22;9295;44.484;11.240;2022-10-16T09:46:49;23.50;99.90
18339;DHT22;9295;44.484;11.240;2022-10-16T09:49:23;23.50;99.90
18339;DHT22;9295;44.484;11.240;2022-10-16T09:52:03;23.50;99.90
18339;DHT22;9295;44.484;11.240;2022-10-16T09:54:32;23.40;99.90
18339;DHT22;9295;44.484;11.240;2022-10-16T09:57:07;23.20;99.90
18339;DHT22;9295;44.484;11.240;2022-10-16T09:59:46;23.20;99.90
18339;DHT22;9295;44.484;11.240;2022-10-16T10:02:16;23.20;99.90
18339;DHT22;9295;44.484;11.240;2022-10-16T10:04:50;23.30;99.90
18339;DHT22;9295;44.484;11.240;2022-10-16T10:07:24;23.40;99.90
18339;DHT22;9295;44.484;11.240;2022-10-16T10:09:56;23.30;99.90
18339;DHT22;9295;44.484;11.240;2022-10-16T10:12:27;23.30;99.90
18339;DHT22;9295;44.484;11.240;2022-10-16T10:14:57;23.40;99.90
18339;DHT22;9295;44.484;11.240;2022-10-16T10:17:27;23.40;99.90
18339;DHT22;9295;44.484;11.240;2022-10-16T10:19:59;23.30;99.90
18339;DHT22;9295;44.484;11.240;2022-10-16T10:22:39;23.10;99.90
18339;DHT22;9295;44.484;11.240;2022-10-16T10:28:28;23.00;99.90
18339;DHT22;9295;44.484;11.240;2022-10-16T10:31:03;23.00;99.90
18339;DHT22;9295;44.484;11.240;2022-10-16T10:33:43;23.10;99.90
18339;DHT22;9295;44.484;11.240;2022-10-16T10:36:22;23.10;99.90
18339;DHT22;9295;44.484;11.240;2022-10-16T10:38:57;23.10;99.90
18339;DHT22;9295;44.484;11.240;2022-10-16T10:42:02;23.10;99.90
18339;DHT22;9295;44.484;11.240;2022-10-16T10:47:30;23.30;99.90
18339;DHT22;9295;44.484;11.240;2022-10-16T10:50:10;23.30;99.90
18339;DHT22;9295;44.484;11.240;2022-10-16T10:52:52;23.30;99.90
18339;DHT22;9295;44.484;11.240;2022-10-16T10:55:27;23.30;99.90
18339;DHT22;9295;44.484;11.240;2022-10-16T10:58:34;23.40;99.90
18339;DHT22;9295;44.484;11.240;2022-10-16T11:01:08;23.50;99.90
18339;DHT22;9295;44.484;11.240;2022-10-16T11:04:01;23.50;99.90
18339;DHT22;9295;44.484;11.240;2022-10-16T11:06:37;23.40;99.90
18339;DHT22;9295;44.484;11.240;2022-10-16T11:09:16;23.50;99.90
18339;DHT22;9295;44.484;11.240;2022-10-16T11:11:51;23.50;99.90
18339;DHT22;9295;44.484;11.240;2022-10-16T11:14:23;23.50;99.90
18339;DHT22;9295;44.484;11.240;2022-10-16T11:16:58;23.40;99.90
18339;DHT22;9295;44.484;11.240;2022-10-16T11:19:36;23.30;99.90
18339;DHT22;9295;44.484;11.240;2022-10-16T11:22:12;23.30;99.90
18339;DHT22;9295;44.484;11.240;2022-10-16T11:24:47;23.40;99.90
18339;DHT22;9295;44.484;11.240;2022-10-16T11:27:19;23.40;99.90
18339;DHT22;9295;44.484;11.240;2022-10-16T11:29:52;23.40;99.90
18339;DHT22;9295;44.484;11.240;2022-10-16T11:32:26;23.40;99.90
18339;DHT22;9295;44.484;11.240;2022-10-16T11:34:59;23.50;99.90
18339;DHT22;9295;44.484;11.240;2022-10-16T11:37:32;23.40;99.90
18339;DHT22;9295;44.484;11.240;2022-10-16T11:40:16;23.50;99.90
18339;DHT22;9295;44.484;11.240;2022-10-16T11:42:51;23.70;99.90
18339;DHT22;9295;44.484;11.240;2022-10-16T11:45:28;23.70;99.90
18339;DHT22;9295;44.484;11.240;2022-10-16T11:48:04;23.60;99.90
18339;DHT22;9295;44.484;11.240;2022-10-16T11:50:39;23.50;99.90
18339;DHT22;9295;44.484;11.240;2022-10-16T11:53:15;23.50;99.90
18339;DHT22;9295;44.484;11.240;2022-10-16T11:55:46;23.60;99.90
18339;DHT22;9295;44.484;11.240;2022-10-16T11:58:23;23.70;99.90
18339;DHT22;9295;44.484;11.240;2022-10-16T12:01:00;23.80;99.90
18339;DHT22;9295;44.484;11.240;2022-10-16T12:03:35;23.50;99.90
18339;DHT22;9295;44.484;11.240;2022-10-16T12:06:16;23.50;99.90
18339;DHT22;9295;44.484;11.240;2022-10-16T12:08:49;23.50;99.90
18339;DHT22;9295;44.484;11.240;2022-10-16T12:11:31;23.50;99.90
18339;DHT22;9295;44.484;11.240;2022-10-16T12:14:22;23.50;99.90
18339;DHT22;9295;44.484;11.240;2022-10-16T12:17:26;23.50;99.90
18339;DHT22;9295;44.484;11.240;2022-10-16T12:20:00;23.70;99.90
18339;DHT22;9295;44.484;11.240;2022-10-16T12:22:31;23.70;99.90
18339;DHT22;9295;44.484;11.240;2022-10-16T12:25:20;23.70;99.90
18339;DHT22;9295;44.484;11.240;2022-10-16T12:27:59;23.60;99.90
18339;DHT22;9295;44.484;11.240;2022-10-16T12:30:30;23.50;99.90
18339;DHT22;9295;44.484;11.240;2022-10-16T12:33:03;23.50;99.90
18339;DHT22;9295;44.484;11.240;2022-10-16T12:35:34;23.40;99.90
18339;DHT22;9295;44.484;11.240;2022-10-16T12:38:12;23.40;99.90
18339;DHT22;9295;44.484;11.240;2022-10-16T12:40:56;23.50;99.90
18339;DHT22;9295;44.484;11.240;2022-10-16T12:43:36;23.60;99.90
18339;DHT22;9295;44.484;11.240;2022-10-16T12:46:20;23.70;99.90
18339;DHT22;9295;44.484;11.240;2022-10-16T12:48:49;23.70;99.90
18339;DHT22;9295;44.484;11.240;2022-10-16T12:51:35;23.80;99.90
18339;DHT22;9295;44.484;11.240;2022-10-16T12:54:12;23.80;99.90
18339;DHT22;9295;44.484;11.240;2022-10-16T12:56:49;23.80;99.90
18339;DHT22;9295;44.484;11.240;2022-10-16T12:59:29;23.80;99.90
18339;DHT22;9295;44.484;11.240;2022-10-16T13:02:32;23.90;99.90
18339;DHT22;9295;44.484;11.240;2022-10-16T13:05:24;23.90;99.90
18339;DHT22;9295;44.484;11.240;2022-10-16T13:08:04;23.90;99.90
18339;DHT22;9295;44.484;11.240;2022-10-16T13:10:41;23.90;99.90
18339;DHT22;9295;44.484;11.240;2022-10-16T13:13:41;23.90;99.90
18339;DHT22;9295;44.484;11.240;2022-10-16T13:16:21;23.90;99.90
18339;DHT22;9295;44.484;11.240;2022-10-16T13:19:04;23.90;99.90
18339;DHT22;9295;44.484;11.240;2022-10-16T13:21:44;23.90;99.90
18339;DHT22;9295;44.484;11.240;2022-10-16T13:24:24;23.90;99.90
18339;DHT22;9295;44.484;11.240;2022-10-16T13:26:59;23.90;99.90
18339;DHT22;9295;44.484;11.240;2022-10-16T13:29:31;24.00;99.90
18339;DHT22;9295;44.484;11.240;2022-10-16T13:32:07;24.00;99.90
18339;DHT22;9295;44.484;11.240;2022-10-16T13:34:44;23.90;99.90
18339;DHT22;9295;44.484;11.240;2022-10-16T13:37:22;23.90;99.90
18339;DHT22;9295;44.484;11.240;2022-10-16T13:39:51;23.90;99.90
18339;DHT22;9295;44.484;11.240;2022-10-16T13:42:30;23.90;99.90
18339;DHT22;9295;44.484;11.240;2022-10-16T13:44:58;23.90;99.90
18339;DHT22;9295;44.484;11.240;2022-10-16T13:47:29;23.80;99.90
18339;DHT22;9295;44.484;11.240;2022-10-16T13:50:01;23.70;99.90
18339;DHT22;9295;44.484;11.240;2022-10-16T13:52:30;23.70;99.90
18339;DHT22;9295;44.484;11.240;2022-10-16T13:54:59;23.60;99.90
18339;DHT22;9295;44.484;11.240;2022-10-16T13:57:29;23.70;99.90
18339;DHT22;9295;44.484;11.240;2022-10-16T13:59:58;23.70;99.90
18339;DHT22;9295;44.484;11.240;2022-10-16T14:02:31;23.70;99.90
18339;DHT22;9295;44.484;11.240;2022-10-16T14:05:04;23.70;99.90
18339;DHT22;9295;44.484;11.240;2022-10-16T14:07:37;23.70;99.90
18339;DHT22;9295;44.484;11.240;2022-10-16T14:10:19;23.70;99.90
18339;DHT22;9295;44.484;11.240;2022-10-16T14:12:58;23.70;99.90
18339;DHT22;9295;44.484;11.240;2022-10-16T14:15:27;23.70;99.90
18339;DHT22;9295;44.484;11.240;2022-10-16T14:17:59;23.70;99.90
18339;DHT22;9295;44.484;11.240;2022-10-16T14:20:29;23.70;99.90
18339;DHT22;9295;44.484;11.240;2022-10-16T14:23:00;23.60;99.90
18339;DHT22;9295;44.484;11.240;2022-10-16T14:25:30;23.50;99.90
18339;DHT22;9295;44.484;11.240;2022-10-16T14:28:04;23.60;99.90
18339;DHT22;9295;44.484;11.240;2022-10-16T14:30:34;23.60;99.90
18339;DHT22;9295;44.484;11.240;2022-10-16T14:33:20;23.50;99.90
18339;DHT22;9295;44.484;11.240;2022-10-16T14:36:00;23.50;99.90
18339;DHT22;9295;44.484;11.240;2022-10-16T14:38:29;23.50;99.90
18339;DHT22;9295;44.484;11.240;2022-10-16T14:40:59;23.40;99.90
18339;DHT22;9295;44.484;11.240;2022-10-16T14:43:32;23.40;99.90
18339;DHT22;9295;44.484;11.240;2022-10-16T14:46:11;23.50;99.90
18339;DHT22;9295;44.484;11.240;2022-10-16T14:48:43;23.50;99.90
18339;DHT22;9295;44.484;11.240;2022-10-16T14:51:13;23.40;99.90
18339;DHT22;9295;44.484;11.240;2022-10-16T14:53:42;23.40;99.90
18339;DHT22;9295;44.484;11.240;2022-10-16T14:56:16;23.40;99.90
18339;DHT22;9295;44.484;11.240;2022-10-16T14:58:46;23.40;99.90
18339;DHT22;9295;44.484;11.240;2022-10-16T15:01:14;23.40;99.90
18339;DHT22;9295;44.484;11.240;2022-10-16T15:03:44;23.50;99.90
18339;DHT22;9295;44.484;11.240;2022-10-16T15:06:15;23.40;99.90
18339;DHT22;9295;44.484;11.240;2022-10-16T15:08:44;23.40;99.90
18339;DHT22;9295;44.484;11.240;2022-10-16T15:11:13;23.30;99.90
18339;DHT22;9295;44.484;11.240;2022-10-16T15:13:42;23.30;99.90
18339;DHT22;9295;44.484;11.240;2022-10-16T15:16:12;23.30;99.90
18339;DHT22;9295;44.484;11.240;2022-10-16T15:18:41;23.30;99.90
18339;DHT22;9295;44.484;11.240;2022-10-16T15:21:21;23.30;99.90
18339;DHT22;9295;44.484;11.240;2022-10-16T15:23:50;23.20;99.90
18339;DHT22;9295;44.484;11.240;2022-10-16T15:26:19;23.20;99.90
18339;DHT22;9295;44.484;11.240;2022-10-16T15:28:47;23.20;99.90
18339;DHT22;9295;44.484;11.240;2022-10-16T15:31:16;23.20;99.90
18339;DHT22;9295;44.484;11.240;2022-10-16T15:33:44;23.10;99.90
18339;DHT22;9295;44.484;11.240;2022-10-16T15:36:28;23.10;99.90
18339;DHT22;9295;44.484;11.240;2022-10-16T15:38:57;23.00;99.90
18339;DHT22;9295;44.484;11.240;2022-10-16T15:41:25;23.00;99.90
18339;DHT22;9295;44.484;11.240;2022-10-16T15:43:54;23.10;99.90
18339;DHT22;9295;44.484;11.240;2022-10-16T15:46:24;23.00;99.90
18339;DHT22;9295;44.484;11.240;2022-10-16T15:48:56;23.00;99.90
18339;DHT22;9295;44.484;11.240;2022-10-16T15:51:27;22.90;99.90
18339;DHT22;9295;44.484;11.240;2022-10-16T15:53:56;22.90;99.90
18339;DHT22;9295;44.484;11.240;2022-10-16T15:56:26;22.90;99.90
18339;DHT22;9295;44.484;11.240;2022-10-16T15:58:55;22.90;99.90
18339;DHT22;9295;44.484;11.240;2022-10-16T16:01:25;22.90;99.90
18339;DHT22;9295;44.484;11.240;2022-10-16T16:03:54;22.80;99.90
18339;DHT22;9295;44.484;11.240;2022-10-16T16:06:23;22.70;99.90
18339;DHT22;9295;44.484;11.240;2022-10-16T16:08:53;22.70;99.90
18339;DHT22;9295;44.484;11.240;2022-10-16T16:11:21;22.60;99.90